Ana Sayfa
METAR-TAF:

METAR-TAF

Havaalanları :

Recife, Pernambuco, Brezilya

Enlem: 08-08S, Boylam: 034-55W, yükseklik: 19 m

Güncel hava durumu gözlemi

Rapor saat 09:00 UTC de 10 dakika önce yapıldı.
Rüzgar güneydoğudan 5 kt
Sıcaklık 28°C
Nem 74%
Basınç 1012 hPa
Görüş mesafesi 10 km veya daha fazla
2200 ft yükseklikte parçalı bulutlu
2400 ft yükseklikte az bulutlu, Yükselen kümülüs.

METAR: SBRF 250900Z 13005KT 9999 SCT022 FEW024TCU 28/23 Q1012

Saat: 06:10 (09:10 UTC)

Tahmin

Rapor saat 04:00 UTC de 5 saat ve 10 dakika önce yapıldı.
Ayın 25'si saat 06 UTC'den ayın 26'si saat 06 UTC'ye kadar geçerli Tahmin
Rüzgar doğu/güneydoğudan 9 kt
Görüş mesafesi 10 km veya daha fazla
2000 ft yükseklikte parçalı bulutlu

TAF: SBRF 250400Z 2506/2606 11009KT 9999 SCT020 TN26/2509Z TX31/2517Z RMK PED

4.000'den fazla havaalanı için hava durumu gözlemleri ve tahminleri (METAR ve TAF raporları).

Kullanılabilir istasyonlar harita üzerinde sarı ve kırmızı noktalarla gösterilir.

İstasyonun adını görmek için fareyi noktanın üzerinde gezdirin.

Sonrasında hava gözlem ve tahminlerini görmek için tıklayın.

Haritayı değiştirmek için: yaklaştırmak için siyah artı işaretli yeşil düğmeye ve uzaklaştırmak için de eksi işaretli düğmeye hızla tıklayın; bitişik haritalar için yeşil okları kullanın.


METAR-TAF: